Sunday, April 20, 2014
13:18 UTC
  |  Log In   |  Register Free
Airport Search:

Alpena County Regional Airport
(KAPN)

FAA data valid effective April 3, 2014 until May 29, 2014 (unless otherwise noted).

 
 
 
 
 
 
 
 
 
 
 
 
 
 

Current Aviation Weather for Alpena County Regional Airport (KAPN)

The most recent METAR observation for KAPN was updated at: 1254 UTC
METAR Summary (Translated METAR)
KAPN
201254Z AUTO 16010KT 10SM BKN085 07/00 A3029 RMK AO2 SLP263 T00670000
KPZQ
(22.4 nm NW from KAPN)
201254Z AUTO 18008KT 10SM OVC120 05/01 A3027 RMK AO2 T00520005
TAF Summary (Translated TAF)
KAPN
201120Z 2012/2112 17006KT P6SM VCSH OVC090 WS015/19030KT FM201500 19010KT 5SM -RA BKN040 OVC080 FM210000 VRB03KT 4SM -RA BR BKN025 OVC040
  Airport Weather Conditions for KAPN

 Current Weather at APN
44° F
Mostly Cloudy
South winds at 11.5 mph
APN NOAA Radar

Pressure: 30.29 in
Humidity: 63%
Wind: South at 11.5 MPH (10 KT)
Dew Point: 32.0°F
Visibility: 10.00 mi


Airport Weather Forecast for KAPN

Translated METAR and TAF for KAPN
Translated METAR for KAPN (1318 UTC 20 April 2014)
found at http://aviationweather.gov/adds/metars/
 
METAR text: KAPN 201254Z AUTO 16010KT 10SM BKN085 07/00 A3029 RMK AO2 SLP263 T00670000
Conditions at: KAPN (ALPENA , MI, US) observed 1254 UTC 20 April 2014
Temperature: 6.7°C (44°F)
Dewpoint: 0.0°C (32°F) [RH = 62%]
Pressure (altimeter): 30.29 inches Hg (1025.8 mb)
[Sea-level pressure: 1026.3 mb]
Winds: from the SSE (160 degrees) at 12 MPH (10 knots; 5.2 m/s)
Visibility: 10 or more miles (16+ km)
Ceiling: 8500 feet AGL
Clouds: broken clouds at 8500 feet AGL
Weather: automated observation with no human augmentation;
there may or may not be significant weather present at this time
Translated TAF for KAPN
Forecast for: KAPN (ALPENA , MI, US)
TAF Text: KAPN 201120Z 2012/2112 17006KT P6SM VCSH OVC090 WS015/19030KT
Forecast period: 1200 to 1500 UTC 20 April 2014
Forecast type: FROM: standard forecast or significant change
Winds: from the S (170 degrees) at 7 MPH (6 knots; 3.1 m/s)
Visibility: 6 or more miles (10+ km)
Ceiling: 9000 feet AGL
Clouds: overcast cloud deck at 9000 feet AGL
Wind shear: at 1500 feet ( 457 m) AGL, from the S (190 degrees) at 34 MPH (30 knots; 15.6 m/s)
Weather: VCSH  (showers in vicinity)
TAF Text: FM201500 19010KT 5SM -RA BKN040 OVC080
Forecast period: 1500 UTC 20 April 2014 to 0000 UTC 21 April 2014
Forecast type: FROM: standard forecast or significant change
Winds: from the S (190 degrees) at 12 MPH (10 knots; 5.2 m/s)
Visibility: 5 miles (8 km)
Ceiling: 4000 feet AGL
Clouds: broken clouds at 4000 feet AGL
overcast cloud deck at 8000 feet AGL
Weather: -RA  (light rain)
TAF Text: FM210000 VRB03KT 4SM -RA BR BKN025 OVC040
Forecast period: 0000 to 1200 UTC 21 April 2014
Forecast type: FROM: standard forecast or significant change
Winds: variable direction winds at 3 MPH (3 knots; 1.6 m/s)
Visibility: 4 miles (6 km)
Ceiling: 2500 feet AGL
Clouds: broken clouds at 2500 feet AGL
overcast cloud deck at 4000 feet AGL
Weather: -RA BR  (light rain, mist)

Find All Airport Services Find A Hotel Find A Rental Car Find A Golf Course Find A Restaurant $100 Hamburger



FBO's on the Field
FBO Company Facility Photos Services Transportation Aviation Fuel Prices: Prices include tax
Catering Weather Repair Courtesy Rental Type 100LL JetA JetA+ MOGAS 8087
 
Aviation Express Inc.

This FBO has not yet been rated
FS:Shell
Last Updated: Mar-31
Login to update fuel prices
SS:
Contact Aviation Express Inc.More FBO Information
 
Aviation North

This FBO has not yet been rated
FS:Avfuel
Last Updated: Apr-14
Login to update fuel prices
SS:
Contact Aviation NorthMore FBO Information
 
Add another FBO Facility Photos Catering Weather Repair Courtesy Rental Type 100LL JetA JetA+ MOGAS 8087
Services Transportation Aviation Fuel Prices: Prices include tax


GlobalAir.com Airport Resource Center model-print
model-print
model-print
model-print